createdAt,value
2023-08-11T00:00:11.549Z,0.00
2023-08-11T00:01:11.644Z,0.00
2023-08-11T00:02:11.540Z,0.00
2023-08-11T00:03:11.578Z,0.00
2023-08-11T00:04:11.536Z,0.00
2023-08-11T00:05:11.543Z,0.00
2023-08-11T00:06:11.570Z,0.00
2023-08-11T00:07:11.583Z,0.00
2023-08-11T00:08:11.550Z,0.00
2023-08-11T00:09:11.546Z,0.00
2023-08-11T00:10:11.550Z,0.00
2023-08-11T00:11:11.535Z,0.00
2023-08-11T00:12:11.568Z,0.00
2023-08-11T00:13:11.545Z,0.00
2023-08-11T00:14:11.537Z,0.00
2023-08-11T00:15:11.536Z,0.00
2023-08-11T00:16:11.592Z,0.00
2023-08-11T00:17:11.527Z,0.00
2023-08-11T00:18:11.545Z,0.00
2023-08-11T00:19:11.539Z,0.00
2023-08-11T00:20:11.534Z,0.00
2023-08-11T00:21:11.534Z,0.00
2023-08-11T00:22:11.536Z,0.00
2023-08-11T00:23:11.524Z,0.00
2023-08-11T00:24:11.526Z,0.00
2023-08-11T00:25:11.528Z,0.00
2023-08-11T00:26:11.531Z,0.00
2023-08-11T00:27:11.595Z,0.00
2023-08-11T00:28:11.550Z,0.00
2023-08-11T00:29:11.534Z,0.00
2023-08-11T00:30:11.517Z,0.00
2023-08-11T00:31:11.542Z,0.00
2023-08-11T00:32:11.523Z,0.00
2023-08-11T00:33:11.561Z,0.00
2023-08-11T00:34:11.518Z,0.00
2023-08-11T00:35:11.508Z,0.00
2023-08-11T00:36:11.514Z,0.00
2023-08-11T00:37:11.511Z,0.00
2023-08-11T00:38:11.522Z,0.00
2023-08-11T00:39:11.519Z,0.00
2023-08-11T00:40:11.527Z,0.00
2023-08-11T00:41:11.516Z,0.00
2023-08-11T00:42:11.505Z,0.00
2023-08-11T00:43:11.514Z,0.00
2023-08-11T00:44:11.530Z,0.00
2023-08-11T00:45:11.517Z,0.00
2023-08-11T00:46:11.514Z,0.00
2023-08-11T00:47:11.517Z,0.00
2023-08-11T00:48:11.504Z,0.00
2023-08-11T00:49:11.506Z,0.00
2023-08-11T00:50:11.509Z,0.00
2023-08-11T00:51:11.506Z,0.00
2023-08-11T00:52:11.503Z,0.00
2023-08-11T00:53:11.503Z,0.00
2023-08-11T00:54:11.512Z,0.00
2023-08-11T00:55:11.502Z,0.00
2023-08-11T00:56:11.491Z,0.00
2023-08-11T00:57:11.496Z,0.00
2023-08-11T00:58:11.494Z,0.00
2023-08-11T00:59:11.502Z,0.00
2023-08-11T01:00:11.521Z,0.00
2023-08-11T01:01:11.532Z,0.00
2023-08-11T01:02:11.622Z,0.00
2023-08-11T01:03:11.503Z,0.00
2023-08-11T01:04:11.487Z,0.00
2023-08-11T01:05:11.504Z,0.00
2023-08-11T01:06:11.519Z,0.00
2023-08-11T01:07:11.506Z,0.00
2023-08-11T01:08:11.502Z,0.00
2023-08-11T01:09:11.490Z,0.00
2023-08-11T01:10:11.501Z,0.00
2023-08-11T01:11:11.487Z,0.00
2023-08-11T01:12:11.492Z,0.00
2023-08-11T01:13:11.516Z,0.00
2023-08-11T01:14:11.478Z,0.00
2023-08-11T01:15:11.502Z,0.00
2023-08-11T01:16:11.515Z,0.00
2023-08-11T01:17:11.787Z,0.00
2023-08-11T01:18:11.489Z,0.00
2023-08-11T01:19:11.482Z,0.00
2023-08-11T01:20:11.515Z,0.00
2023-08-11T01:21:11.483Z,0.00
2023-08-11T01:22:11.486Z,0.00
2023-08-11T01:23:11.483Z,0.00
2023-08-11T01:24:11.478Z,0.00
2023-08-11T01:25:11.484Z,0.00
2023-08-11T01:26:11.483Z,0.00
2023-08-11T01:27:11.477Z,0.00
2023-08-11T01:28:11.478Z,0.00
2023-08-11T01:29:11.473Z,0.00
2023-08-11T01:30:11.473Z,0.00
2023-08-11T01:31:11.552Z,0.00
2023-08-11T01:32:11.492Z,0.00
2023-08-11T01:33:11.483Z,0.00
2023-08-11T01:34:11.481Z,0.00
2023-08-11T01:35:12.842Z,0.00
2023-08-11T01:36:11.468Z,0.00
2023-08-11T01:37:11.529Z,0.00
2023-08-11T01:38:11.566Z,0.00
2023-08-11T01:39:11.482Z,0.00
2023-08-11T01:40:11.464Z,0.00
2023-08-11T01:41:11.497Z,0.00
2023-08-11T01:42:11.464Z,0.00
2023-08-11T01:43:11.479Z,0.00
2023-08-11T01:44:11.469Z,0.00
2023-08-11T01:45:11.493Z,0.00
2023-08-11T01:46:11.512Z,0.00
2023-08-11T01:47:11.475Z,0.00
2023-08-11T01:48:11.515Z,0.00
2023-08-11T01:49:11.495Z,0.00
2023-08-11T01:50:11.465Z,0.00
2023-08-11T01:51:11.465Z,0.00
2023-08-11T01:52:11.480Z,0.00
2023-08-11T01:53:11.473Z,0.00
2023-08-11T01:54:11.470Z,0.00
2023-08-11T01:55:11.468Z,0.00
2023-08-11T01:56:11.464Z,0.00
2023-08-11T01:57:11.459Z,0.00
2023-08-11T01:58:11.477Z,0.00
2023-08-11T01:59:11.465Z,0.00
2023-08-11T02:00:11.480Z,0.00
2023-08-11T02:01:11.471Z,0.00
2023-08-11T02:02:11.472Z,0.00
2023-08-11T02:03:11.604Z,0.00
2023-08-11T02:04:11.473Z,0.00
2023-08-11T02:05:11.455Z,0.00
2023-08-11T02:06:11.462Z,0.00
2023-08-11T02:07:11.477Z,0.00
2023-08-11T02:08:11.456Z,0.00
2023-08-11T02:09:11.457Z,0.00
2023-08-11T02:10:11.454Z,0.00
2023-08-11T02:11:11.449Z,0.00
2023-08-11T02:12:11.463Z,0.00
2023-08-11T02:13:11.449Z,0.00
2023-08-11T02:14:11.447Z,0.00
2023-08-11T02:15:11.447Z,0.00
2023-08-11T02:16:11.518Z,0.00
2023-08-11T02:17:11.444Z,0.00
2023-08-11T02:18:11.462Z,0.00
2023-08-11T02:19:11.469Z,0.00
2023-08-11T02:20:11.469Z,0.00
2023-08-11T02:21:11.470Z,0.00
2023-08-11T02:22:11.451Z,0.00
2023-08-11T02:23:11.432Z,0.00
2023-08-11T02:24:11.436Z,0.00
2023-08-11T02:25:11.426Z,0.00
2023-08-11T02:26:11.473Z,0.00
2023-08-11T02:27:11.433Z,0.00
2023-08-11T02:28:11.489Z,0.00
2023-08-11T02:29:11.426Z,0.00
2023-08-11T02:30:11.436Z,0.00
2023-08-11T02:31:11.501Z,0.00
2023-08-11T02:32:11.428Z,0.00
2023-08-11T02:33:11.461Z,0.00
2023-08-11T02:34:11.437Z,0.00
2023-08-11T02:35:11.510Z,0.00
2023-08-11T02:36:11.477Z,0.00
2023-08-11T02:37:11.425Z,0.00
2023-08-11T02:38:11.422Z,0.00
2023-08-11T02:39:11.419Z,0.00
2023-08-11T02:40:11.471Z,0.00
2023-08-11T02:41:11.432Z,0.00
2023-08-11T02:42:11.413Z,0.00
2023-08-11T02:43:11.429Z,0.00
2023-08-11T02:44:11.413Z,0.00
2023-08-11T02:45:11.422Z,0.00
2023-08-11T02:46:11.478Z,0.00
2023-08-11T02:47:11.412Z,0.00
2023-08-11T02:48:11.414Z,0.00
2023-08-11T02:49:11.433Z,0.00
2023-08-11T02:50:11.478Z,0.00
2023-08-11T02:51:11.409Z,0.00
2023-08-11T02:52:11.429Z,0.00
2023-08-11T02:53:11.415Z,0.00
2023-08-11T02:54:11.418Z,0.00
2023-08-11T02:55:11.422Z,0.00
2023-08-11T02:56:11.406Z,0.00
2023-08-11T02:57:11.406Z,0.00
2023-08-11T02:58:11.407Z,0.00
2023-08-11T02:59:11.400Z,0.00
2023-08-11T03:00:11.404Z,0.00
2023-08-11T03:01:11.444Z,0.00
2023-08-11T03:02:11.610Z,0.00
2023-08-11T03:03:11.457Z,0.00
2023-08-11T03:04:11.396Z,0.00
2023-08-11T03:05:11.442Z,0.00
2023-08-11T03:06:11.402Z,0.00
2023-08-11T03:07:11.408Z,0.00
2023-08-11T03:08:11.427Z,0.00
2023-08-11T03:09:11.392Z,0.00
2023-08-11T03:10:11.401Z,0.00
2023-08-11T03:11:11.390Z,0.00
2023-08-11T03:12:11.391Z,0.00
2023-08-11T03:13:11.389Z,0.00
2023-08-11T03:14:11.395Z,0.00
2023-08-11T03:15:11.509Z,0.00
2023-08-11T03:16:11.418Z,0.00
2023-08-11T03:17:11.462Z,0.00
2023-08-11T03:18:11.385Z,0.00
2023-08-11T03:19:11.389Z,0.00
2023-08-11T03:20:11.399Z,0.00
2023-08-11T03:21:19.687Z,0.00
2023-08-11T03:22:11.393Z,0.00
2023-08-11T03:23:11.374Z,0.00
2023-08-11T03:24:14.268Z,0.00
2023-08-11T03:25:11.385Z,0.00
2023-08-11T03:26:11.397Z,0.00
2023-08-11T03:27:11.411Z,0.00
2023-08-11T03:28:11.396Z,0.00
2023-08-11T03:29:11.373Z,0.00
2023-08-11T03:30:11.380Z,0.00
2023-08-11T03:31:11.384Z,0.00
2023-08-11T03:32:11.694Z,0.00
2023-08-11T03:33:11.450Z,0.00
2023-08-11T03:34:11.392Z,0.00
2023-08-11T03:35:11.392Z,0.00
2023-08-11T03:36:11.376Z,0.00
2023-08-11T03:37:11.364Z,0.00
2023-08-11T03:38:11.376Z,0.00
2023-08-11T03:39:11.375Z,0.00
2023-08-11T03:40:11.415Z,0.00
2023-08-11T03:41:11.378Z,0.00
2023-08-11T03:42:14.105Z,0.00
2023-08-11T03:43:11.374Z,0.00
2023-08-11T03:44:11.398Z,0.00
2023-08-11T03:45:11.373Z,0.00
2023-08-11T03:46:11.369Z,0.00
2023-08-11T03:47:11.377Z,0.00
2023-08-11T03:48:11.387Z,0.00
2023-08-11T03:49:11.362Z,0.00
2023-08-11T03:50:11.360Z,0.00
2023-08-11T03:51:11.356Z,0.00
2023-08-11T03:52:11.572Z,0.00
2023-08-11T03:53:11.361Z,4.00
2023-08-11T03:54:11.385Z,4.00
2023-08-11T03:55:11.355Z,4.00
2023-08-11T03:56:11.377Z,0.00
2023-08-11T03:57:11.347Z,0.00
2023-08-11T03:58:11.358Z,4.00
2023-08-11T03:59:11.356Z,4.00
2023-08-11T04:00:11.369Z,0.00
2023-08-11T04:01:11.376Z,4.00
2023-08-11T04:02:11.428Z,4.00
2023-08-11T04:03:11.409Z,4.00
2023-08-11T04:04:11.343Z,4.00
2023-08-11T04:05:11.394Z,4.00
2023-08-11T04:06:11.357Z,8.00
2023-08-11T04:07:11.375Z,4.00
2023-08-11T04:08:11.342Z,8.00
2023-08-11T04:09:11.343Z,8.00
2023-08-11T04:10:11.348Z,12.00
2023-08-11T04:11:11.344Z,8.00
2023-08-11T04:12:11.564Z,12.00
2023-08-11T04:13:11.343Z,12.00
2023-08-11T04:14:11.357Z,12.00
2023-08-11T04:15:11.350Z,16.00
2023-08-11T04:16:11.336Z,16.00
2023-08-11T04:17:11.337Z,16.00
2023-08-11T04:18:11.422Z,16.00
2023-08-11T04:19:11.349Z,20.00
2023-08-11T04:20:11.339Z,20.00
2023-08-11T04:21:11.336Z,20.00
2023-08-11T04:22:13.048Z,24.00
2023-08-11T04:23:11.337Z,28.00
2023-08-11T04:24:11.336Z,28.00
2023-08-11T04:25:11.344Z,28.00
2023-08-11T04:26:11.345Z,32.00
2023-08-11T04:27:11.326Z,32.00
2023-08-11T04:28:11.354Z,32.00
2023-08-11T04:29:11.321Z,36.00
2023-08-11T04:30:11.335Z,40.00
2023-08-11T04:31:11.370Z,40.00
2023-08-11T04:32:11.602Z,40.00
2023-08-11T04:33:11.369Z,44.00
2023-08-11T04:34:11.326Z,44.00
2023-08-11T04:35:11.326Z,48.00
2023-08-11T04:36:11.323Z,52.00
2023-08-11T04:37:11.318Z,52.00
2023-08-11T04:38:11.318Z,56.00
2023-08-11T04:39:11.356Z,60.00
2023-08-11T04:40:11.337Z,60.00
2023-08-11T04:41:11.314Z,64.00
2023-08-11T04:42:11.401Z,64.00
2023-08-11T04:43:11.311Z,68.00
2023-08-11T04:44:11.340Z,68.00
2023-08-11T04:45:11.327Z,72.00
2023-08-11T04:46:11.358Z,72.00
2023-08-11T04:47:11.309Z,76.00
2023-08-11T04:48:11.393Z,76.00
2023-08-11T04:49:11.310Z,80.00
2023-08-11T04:50:11.321Z,84.00
2023-08-11T04:51:11.309Z,84.00
2023-08-11T04:52:11.377Z,88.00
2023-08-11T04:53:11.303Z,92.00
2023-08-11T04:54:11.309Z,92.00
2023-08-11T04:55:11.296Z,96.00
2023-08-11T04:56:11.314Z,96.00
2023-08-11T04:57:11.297Z,100.00
2023-08-11T04:58:11.302Z,104.00
2023-08-11T04:59:11.302Z,108.00
2023-08-11T05:00:11.330Z,108.00
2023-08-11T05:01:11.298Z,112.00
2023-08-11T05:02:11.617Z,116.00
2023-08-11T05:03:11.476Z,120.00
2023-08-11T05:04:11.293Z,120.00
2023-08-11T05:05:11.296Z,128.00
2023-08-11T05:06:11.330Z,136.00
2023-08-11T05:07:11.492Z,160.00
2023-08-11T05:08:11.293Z,196.00
2023-08-11T05:09:11.300Z,236.00
2023-08-11T05:10:11.313Z,276.00
2023-08-11T05:11:11.298Z,316.00
2023-08-11T05:12:11.473Z,348.00
2023-08-11T05:13:11.284Z,372.00
2023-08-11T05:14:11.292Z,384.00
2023-08-11T05:15:11.301Z,396.00
2023-08-11T05:16:11.343Z,404.00
2023-08-11T05:17:11.755Z,412.00
2023-08-11T05:18:11.325Z,424.00
2023-08-11T05:19:11.287Z,436.00
2023-08-11T05:20:11.281Z,444.00
2023-08-11T05:21:11.298Z,456.00
2023-08-11T05:22:11.296Z,464.00
2023-08-11T05:23:11.279Z,472.00
2023-08-11T05:24:11.280Z,476.00
2023-08-11T05:25:11.296Z,484.00
2023-08-11T05:26:11.311Z,496.00
2023-08-11T05:27:11.294Z,504.00
2023-08-11T05:28:11.287Z,516.00
2023-08-11T05:29:12.303Z,524.00
2023-08-11T05:30:11.275Z,488.00
2023-08-11T05:31:11.276Z,500.00
2023-08-11T05:32:11.342Z,508.00
2023-08-11T05:33:11.266Z,508.00
2023-08-11T05:34:11.279Z,520.00
2023-08-11T05:35:11.270Z,528.00
2023-08-11T05:36:11.267Z,540.00
2023-08-11T05:37:11.701Z,552.00
2023-08-11T05:38:11.275Z,552.00
2023-08-11T05:39:11.267Z,564.00
2023-08-11T05:40:11.277Z,572.00
2023-08-11T05:41:11.280Z,576.00
2023-08-11T05:42:11.261Z,588.00
2023-08-11T05:43:11.270Z,604.00
2023-08-11T05:44:11.258Z,612.00
2023-08-11T05:45:11.278Z,620.00
2023-08-11T05:46:11.309Z,632.00
2023-08-11T05:47:11.574Z,648.00
2023-08-11T05:48:11.357Z,660.00
2023-08-11T05:49:11.285Z,684.00
2023-08-11T05:50:11.266Z,700.00
2023-08-11T05:51:11.274Z,720.00
2023-08-11T05:52:11.253Z,740.00
2023-08-11T05:53:11.265Z,756.00
2023-08-11T05:54:11.272Z,828.00
2023-08-11T05:55:11.296Z,872.00
2023-08-11T05:56:11.266Z,872.00
2023-08-11T05:57:11.529Z,848.00
2023-08-11T05:58:11.274Z,828.00
2023-08-11T05:59:11.251Z,912.00
2023-08-11T06:00:11.312Z,920.00
2023-08-11T06:01:11.329Z,1012.00
2023-08-11T06:02:11.254Z,1004.00
2023-08-11T06:03:11.313Z,952.00
2023-08-11T06:04:11.359Z,904.00
2023-08-11T06:05:11.252Z,1032.00
2023-08-11T06:06:11.270Z,1048.00
2023-08-11T06:07:11.615Z,1152.00
2023-08-11T06:08:11.286Z,1172.00
2023-08-11T06:09:11.256Z,1120.00
2023-08-11T06:10:11.251Z,1020.00
2023-08-11T06:11:11.251Z,1008.00
2023-08-11T06:12:11.259Z,1044.00
2023-08-11T06:13:11.250Z,980.00
2023-08-11T06:14:11.266Z,1108.00
2023-08-11T06:15:11.270Z,1032.00
2023-08-11T06:16:11.382Z,1088.00
2023-08-11T06:17:13.017Z,1328.00
2023-08-11T06:18:11.306Z,1468.00
2023-08-11T06:19:11.277Z,1580.00
2023-08-11T06:20:11.314Z,1684.00
2023-08-11T06:21:11.288Z,2828.00
2023-08-11T06:22:11.277Z,3184.00
2023-08-11T06:23:11.269Z,1276.00
2023-08-11T06:24:11.279Z,444.00
2023-08-11T06:25:11.254Z,404.00
2023-08-11T06:26:11.304Z,376.00
2023-08-11T06:27:11.757Z,360.00
2023-08-11T06:28:11.253Z,352.00
2023-08-11T06:29:11.245Z,344.00
2023-08-11T06:30:11.253Z,344.00
2023-08-11T06:31:11.277Z,340.00
2023-08-11T06:32:11.259Z,332.00
2023-08-11T06:33:11.287Z,336.00
2023-08-11T06:34:11.277Z,328.00
2023-08-11T06:35:11.251Z,328.00
2023-08-11T06:36:11.272Z,320.00
2023-08-11T06:37:11.425Z,320.00
2023-08-11T06:38:11.322Z,320.00
2023-08-11T06:39:11.246Z,316.00
2023-08-11T06:40:11.252Z,320.00
2023-08-11T06:41:11.414Z,316.00
2023-08-11T06:42:11.338Z,316.00
2023-08-11T06:43:11.247Z,316.00
2023-08-11T06:44:11.246Z,312.00
2023-08-11T06:45:11.268Z,308.00
2023-08-11T06:46:11.357Z,312.00
2023-08-11T06:47:11.363Z,312.00
2023-08-11T06:48:11.261Z,308.00
2023-08-11T06:49:11.269Z,312.00
2023-08-11T06:50:11.292Z,308.00
2023-08-11T06:51:11.250Z,308.00
2023-08-11T06:52:11.284Z,312.00
2023-08-11T06:53:11.238Z,312.00
2023-08-11T06:54:11.306Z,304.00
2023-08-11T06:55:11.269Z,312.00
2023-08-11T06:56:11.266Z,308.00
2023-08-11T06:57:11.780Z,308.00
2023-08-11T06:58:11.293Z,312.00
2023-08-11T06:59:11.262Z,308.00
2023-08-11T07:00:11.288Z,308.00
2023-08-11T07:01:11.355Z,308.00
2023-08-11T07:02:11.319Z,308.00
2023-08-11T07:03:11.324Z,308.00
2023-08-11T07:04:11.315Z,312.00
2023-08-11T07:05:11.282Z,312.00
2023-08-11T07:06:11.238Z,312.00
2023-08-11T07:07:11.475Z,312.00
2023-08-11T07:08:11.343Z,316.00
2023-08-11T07:09:11.258Z,320.00
2023-08-11T07:10:11.248Z,316.00
2023-08-11T07:11:11.251Z,320.00
2023-08-11T07:12:11.236Z,328.00
2023-08-11T07:13:11.353Z,328.00
2023-08-11T07:14:11.254Z,332.00
2023-08-11T07:15:11.224Z,344.00
2023-08-11T07:16:11.237Z,372.00
2023-08-11T07:17:11.622Z,424.00
2023-08-11T07:18:11.246Z,488.00
2023-08-11T07:19:11.221Z,560.00
2023-08-11T07:20:11.249Z,648.00
2023-08-11T07:21:11.234Z,748.00
2023-08-11T07:22:11.231Z,868.00
2023-08-11T07:23:11.228Z,1028.00
2023-08-11T07:24:11.281Z,1432.00
2023-08-11T07:25:11.233Z,2016.00
2023-08-11T07:26:11.235Z,2424.00
2023-08-11T07:27:11.509Z,2452.00
2023-08-11T07:28:11.242Z,2420.00
2023-08-11T07:29:11.214Z,2428.00
2023-08-11T07:30:11.222Z,2436.00
2023-08-11T07:31:11.245Z,2396.00
2023-08-11T07:32:11.229Z,2320.00
2023-08-11T07:33:11.294Z,2232.00
2023-08-11T07:34:11.222Z,2180.00
2023-08-11T07:35:11.229Z,2140.00
2023-08-11T07:36:11.216Z,2112.00
2023-08-11T07:37:11.566Z,2100.00
2023-08-11T07:38:12.646Z,2088.00
2023-08-11T07:39:22.117Z,2068.00
2023-08-11T07:40:11.270Z,2052.00
2023-08-11T07:41:11.224Z,2036.00
2023-08-11T07:42:11.209Z,2032.00
2023-08-11T07:43:11.214Z,2016.00
2023-08-11T07:44:11.227Z,1996.00
2023-08-11T07:45:11.223Z,1964.00
2023-08-11T07:46:11.225Z,1936.00
2023-08-11T07:47:11.443Z,1884.00
2023-08-11T07:48:11.236Z,1876.00
2023-08-11T07:49:11.234Z,1856.00
2023-08-11T07:50:11.211Z,1852.00
2023-08-11T07:51:11.256Z,1852.00
2023-08-11T07:52:11.221Z,1844.00
2023-08-11T07:53:11.224Z,1836.00
2023-08-11T07:54:11.414Z,1860.00
2023-08-11T07:55:11.325Z,2240.00
2023-08-11T07:56:11.237Z,2236.00
2023-08-11T07:57:11.434Z,1992.00
2023-08-11T07:58:11.208Z,1988.00
2023-08-11T07:59:11.238Z,1952.00
2023-08-11T08:00:11.201Z,1964.00
2023-08-11T08:01:11.207Z,1932.00
2023-08-11T08:02:11.230Z,1924.00
2023-08-11T08:03:11.373Z,1904.00
2023-08-11T08:04:11.275Z,1900.00
2023-08-11T08:05:13.473Z,1904.00
2023-08-11T08:06:11.208Z,1960.00
2023-08-11T08:07:11.582Z,2008.00
2023-08-11T08:08:11.211Z,2032.00
2023-08-11T08:09:11.210Z,2040.00
2023-08-11T08:10:11.214Z,2032.00
2023-08-11T08:11:11.205Z,2024.00
2023-08-11T08:12:11.236Z,2204.00
2023-08-11T08:13:11.213Z,2080.00
2023-08-11T08:14:11.215Z,2148.00
2023-08-11T08:15:11.224Z,2228.00
2023-08-11T08:16:11.286Z,2292.00
2023-08-11T08:17:11.603Z,2372.00
2023-08-11T08:18:11.212Z,2412.00
2023-08-11T08:19:11.226Z,2400.00
2023-08-11T08:20:11.219Z,2444.00
2023-08-11T08:21:11.253Z,2556.00
2023-08-11T08:22:11.219Z,2616.00
2023-08-11T08:23:13.665Z,2736.00
2023-08-11T08:24:11.222Z,2920.00
2023-08-11T08:25:11.234Z,3160.00
2023-08-11T08:26:11.208Z,3312.00
2023-08-11T08:27:11.455Z,3440.00
2023-08-11T08:28:11.224Z,3580.00
2023-08-11T08:29:11.228Z,3604.00
2023-08-11T08:30:11.222Z,3644.00
2023-08-11T08:31:11.215Z,3720.00
2023-08-11T08:32:11.219Z,3832.00
2023-08-11T08:33:11.361Z,3944.00
2023-08-11T08:34:11.301Z,4060.00
2023-08-11T08:35:11.268Z,4156.00
2023-08-11T08:36:11.228Z,4276.00
2023-08-11T08:37:11.295Z,4392.00
2023-08-11T08:38:11.236Z,4504.00
2023-08-11T08:39:11.216Z,4632.00
2023-08-11T08:40:11.215Z,4768.00
2023-08-11T08:41:11.227Z,4920.00
2023-08-11T08:42:11.213Z,5052.00
2023-08-11T08:43:11.214Z,5216.00
2023-08-11T08:44:11.241Z,5364.00
2023-08-11T08:45:11.222Z,5520.00
2023-08-11T08:46:11.321Z,5712.00
2023-08-11T08:47:11.426Z,5920.00
2023-08-11T08:48:11.304Z,6148.00
2023-08-11T08:49:11.218Z,6376.00
2023-08-11T08:50:11.218Z,6616.00
2023-08-11T08:51:11.214Z,6852.00
2023-08-11T08:52:11.230Z,6860.00
2023-08-11T08:53:11.242Z,6332.00
2023-08-11T08:54:11.240Z,4968.00
2023-08-11T08:55:11.209Z,3108.00
2023-08-11T08:56:11.217Z,1928.00
2023-08-11T08:57:12.394Z,1484.00
2023-08-11T08:58:11.218Z,1048.00
2023-08-11T08:59:11.226Z,868.00
2023-08-11T09:00:11.301Z,728.00
2023-08-11T09:01:11.372Z,588.00
2023-08-11T09:02:11.543Z,476.00
2023-08-11T09:03:11.345Z,400.00
2023-08-11T09:04:11.398Z,376.00
2023-08-11T09:05:11.219Z,368.00
2023-08-11T09:06:11.217Z,356.00
2023-08-11T09:07:11.494Z,352.00
2023-08-11T09:08:11.223Z,344.00
2023-08-11T09:09:11.252Z,340.00
2023-08-11T09:10:11.216Z,336.00
2023-08-11T09:11:11.234Z,328.00
2023-08-11T09:12:11.639Z,324.00
2023-08-11T09:13:11.225Z,316.00
2023-08-11T09:14:11.229Z,312.00
2023-08-11T09:15:11.225Z,308.00
2023-08-11T09:16:11.255Z,304.00
2023-08-11T09:17:11.245Z,300.00
2023-08-11T09:18:11.253Z,296.00
2023-08-11T09:19:11.225Z,292.00
2023-08-11T09:20:11.282Z,288.00
2023-08-11T09:21:11.232Z,284.00
2023-08-11T09:22:11.551Z,280.00
2023-08-11T09:23:11.221Z,280.00
2023-08-11T09:24:11.215Z,276.00
2023-08-11T09:25:11.227Z,272.00
2023-08-11T09:26:11.221Z,272.00
2023-08-11T09:27:11.215Z,268.00
2023-08-11T09:28:11.223Z,264.00
2023-08-11T09:29:11.251Z,264.00
2023-08-11T09:30:11.232Z,260.00
2023-08-11T09:31:11.252Z,260.00
2023-08-11T09:32:11.472Z,256.00
2023-08-11T09:33:11.240Z,252.00
2023-08-11T09:34:11.223Z,252.00
2023-08-11T09:35:11.232Z,248.00
2023-08-11T09:36:11.229Z,248.00
2023-08-11T09:37:11.243Z,248.00
2023-08-11T09:38:11.218Z,244.00
2023-08-11T09:39:11.224Z,240.00
2023-08-11T09:40:11.217Z,244.00
2023-08-11T09:41:11.226Z,240.00
2023-08-11T09:42:11.558Z,240.00
2023-08-11T09:43:11.218Z,236.00
2023-08-11T09:44:11.233Z,240.00
2023-08-11T09:45:11.230Z,240.00
2023-08-11T09:46:13.441Z,236.00
2023-08-11T09:47:16.391Z,236.00
2023-08-11T09:48:11.301Z,236.00
2023-08-11T09:49:11.216Z,236.00
2023-08-11T09:50:11.274Z,236.00
2023-08-11T09:51:11.231Z,232.00
2023-08-11T09:52:11.336Z,232.00
2023-08-11T09:53:11.224Z,236.00
2023-08-11T09:54:11.214Z,236.00
2023-08-11T09:55:11.233Z,236.00
2023-08-11T09:56:11.230Z,236.00
2023-08-11T09:57:11.230Z,236.00
2023-08-11T09:58:11.221Z,236.00
2023-08-11T09:59:11.221Z,236.00
2023-08-11T10:00:11.274Z,236.00
2023-08-11T10:01:20.474Z,232.00
2023-08-11T10:02:11.582Z,232.00
2023-08-11T10:03:11.450Z,236.00
2023-08-11T10:04:11.239Z,232.00
2023-08-11T10:05:11.222Z,232.00
2023-08-11T10:06:11.227Z,232.00
2023-08-11T10:07:11.237Z,228.00
2023-08-11T10:08:11.216Z,228.00
2023-08-11T10:09:11.211Z,228.00
2023-08-11T10:10:11.220Z,224.00
2023-08-11T10:11:13.048Z,220.00
2023-08-11T10:12:11.462Z,220.00
2023-08-11T10:13:11.228Z,220.00
2023-08-11T10:14:11.216Z,220.00
2023-08-11T10:15:11.236Z,220.00
2023-08-11T10:16:11.259Z,220.00
2023-08-11T10:17:11.243Z,220.00
2023-08-11T10:18:11.267Z,216.00
2023-08-11T10:19:11.216Z,212.00
2023-08-11T10:20:11.266Z,212.00
2023-08-11T10:21:11.228Z,208.00
2023-08-11T10:22:11.405Z,208.00
2023-08-11T10:23:11.207Z,208.00
2023-08-11T10:24:11.213Z,208.00
2023-08-11T10:25:11.267Z,208.00
2023-08-11T10:26:11.206Z,208.00
2023-08-11T10:27:11.215Z,208.00
2023-08-11T10:28:11.207Z,208.00
2023-08-11T10:29:11.210Z,208.00
2023-08-11T10:30:11.217Z,208.00
2023-08-11T10:31:11.216Z,208.00
2023-08-11T10:32:11.529Z,204.00
2023-08-11T10:33:11.389Z,204.00
2023-08-11T10:34:11.210Z,204.00
2023-08-11T10:35:11.212Z,208.00
2023-08-11T10:36:11.316Z,208.00
2023-08-11T10:37:11.261Z,212.00
2023-08-11T10:38:11.222Z,216.00
2023-08-11T10:39:11.204Z,212.00
2023-08-11T10:40:11.223Z,216.00
2023-08-11T10:41:11.219Z,208.00
2023-08-11T10:42:11.389Z,208.00
2023-08-11T10:43:11.209Z,212.00
2023-08-11T10:44:11.260Z,204.00
2023-08-11T10:45:11.207Z,204.00
2023-08-11T10:46:11.224Z,204.00
2023-08-11T10:47:11.202Z,208.00
2023-08-11T10:48:11.211Z,200.00
2023-08-11T10:49:11.225Z,200.00
2023-08-11T10:50:11.228Z,200.00
2023-08-11T10:51:11.220Z,200.00
2023-08-11T10:52:11.457Z,200.00
2023-08-11T10:53:11.206Z,200.00
2023-08-11T10:54:11.206Z,196.00
2023-08-11T10:55:11.209Z,192.00
2023-08-11T10:56:11.211Z,184.00
2023-08-11T10:57:11.228Z,188.00
2023-08-11T10:58:11.241Z,192.00
2023-08-11T10:59:11.206Z,196.00
2023-08-11T11:00:11.217Z,196.00
2023-08-11T11:01:11.243Z,200.00
2023-08-11T11:02:11.419Z,196.00
2023-08-11T11:03:11.201Z,196.00
2023-08-11T11:04:11.202Z,192.00
2023-08-11T11:05:11.240Z,196.00
2023-08-11T11:06:11.209Z,196.00
2023-08-11T11:07:11.202Z,200.00
2023-08-11T11:08:11.230Z,204.00
2023-08-11T11:09:11.206Z,200.00
2023-08-11T11:10:11.247Z,196.00
2023-08-11T11:11:11.204Z,196.00
2023-08-11T11:12:11.927Z,196.00
2023-08-11T11:13:11.200Z,196.00
2023-08-11T11:14:11.208Z,200.00
2023-08-11T11:15:11.198Z,200.00
2023-08-11T11:16:11.254Z,196.00
2023-08-11T11:17:11.214Z,196.00
2023-08-11T11:18:11.198Z,200.00
2023-08-11T11:19:11.190Z,196.00
2023-08-11T11:20:11.192Z,200.00
2023-08-11T11:21:11.196Z,196.00
2023-08-11T11:22:11.515Z,196.00
2023-08-11T11:23:11.202Z,196.00
2023-08-11T11:24:11.450Z,192.00
2023-08-11T11:25:11.200Z,188.00
2023-08-11T11:26:11.199Z,188.00
2023-08-11T11:27:11.197Z,188.00
2023-08-11T11:28:11.190Z,188.00
2023-08-11T11:29:11.212Z,184.00
2023-08-11T11:30:11.214Z,180.00
2023-08-11T11:31:11.255Z,180.00
2023-08-11T11:32:11.439Z,180.00
2023-08-11T11:33:11.304Z,180.00
2023-08-11T11:34:11.279Z,176.00
2023-08-11T11:35:11.186Z,176.00
2023-08-11T11:36:11.190Z,172.00
2023-08-11T11:37:11.203Z,172.00
2023-08-11T11:38:11.221Z,172.00
2023-08-11T11:39:11.229Z,168.00
2023-08-11T11:40:11.256Z,164.00
2023-08-11T11:41:11.188Z,164.00
2023-08-11T11:42:11.516Z,168.00
2023-08-11T11:43:11.187Z,168.00
2023-08-11T11:44:11.195Z,168.00
2023-08-11T11:45:11.191Z,164.00
2023-08-11T11:46:11.291Z,168.00
2023-08-11T11:47:11.213Z,164.00
2023-08-11T11:48:11.205Z,164.00
2023-08-11T11:49:23.486Z,164.00
2023-08-11T11:50:11.186Z,164.00
2023-08-11T11:51:11.195Z,160.00
2023-08-11T11:52:11.431Z,164.00
2023-08-11T11:53:11.211Z,160.00
2023-08-11T11:54:11.200Z,164.00
2023-08-11T11:55:11.192Z,164.00
2023-08-11T11:56:11.210Z,164.00
2023-08-11T11:57:12.090Z,164.00
2023-08-11T11:58:11.188Z,164.00
2023-08-11T11:59:11.191Z,168.00
2023-08-11T12:00:11.184Z,164.00
2023-08-11T12:01:11.186Z,168.00
2023-08-11T12:02:11.388Z,156.00
2023-08-11T12:03:11.215Z,156.00
2023-08-11T12:04:11.310Z,148.00
2023-08-11T12:05:11.232Z,152.00
2023-08-11T12:06:11.218Z,152.00
2023-08-11T12:07:11.190Z,160.00
2023-08-11T12:08:11.619Z,152.00
2023-08-11T12:09:11.191Z,160.00
2023-08-11T12:10:11.182Z,168.00
2023-08-11T12:11:11.181Z,172.00
2023-08-11T12:12:11.379Z,176.00
2023-08-11T12:13:11.194Z,180.00
2023-08-11T12:14:11.183Z,180.00
2023-08-11T12:15:11.182Z,180.00
2023-08-11T12:16:11.275Z,180.00
2023-08-11T12:17:11.196Z,180.00
2023-08-11T12:18:11.212Z,180.00
2023-08-11T12:19:11.210Z,172.00
2023-08-11T12:20:11.189Z,172.00
2023-08-11T12:21:11.184Z,168.00
2023-08-11T12:22:11.581Z,168.00
2023-08-11T12:23:11.202Z,164.00
2023-08-11T12:24:11.178Z,164.00
2023-08-11T12:25:13.092Z,164.00
2023-08-11T12:26:11.328Z,164.00
2023-08-11T12:27:11.181Z,168.00
2023-08-11T12:28:11.209Z,168.00
2023-08-11T12:29:11.187Z,168.00
2023-08-11T12:30:11.183Z,160.00
2023-08-11T12:31:14.002Z,160.00
2023-08-11T12:32:11.383Z,140.00
2023-08-11T12:33:11.259Z,148.00
2023-08-11T12:34:11.172Z,156.00
2023-08-11T12:35:11.182Z,156.00
2023-08-11T12:36:11.181Z,160.00
2023-08-11T12:37:13.313Z,164.00
2023-08-11T12:38:11.182Z,168.00
2023-08-11T12:39:11.297Z,164.00
2023-08-11T12:40:11.203Z,164.00
2023-08-11T12:41:11.177Z,164.00
2023-08-11T12:42:11.620Z,164.00